Flight Track Log - Related Links

Times and Time Zones

All times are in EST time to prevent confusion due to time zone crossing. See the LRT44 flight status page for this flight to view local times or setup timezone preferences in your user account.

Time Position Orientation Groundspeed Altitude Reporting Facility
EST Latitude Longitude Course Direction KTS km/h feet Rate Location/Type
Sat 13:31:19 40.0667 -75.0333 123° Southeast 220 407 1.000  Level Philadelphia TRACON
Sat 13:32:13 40.0333 -74.9667 123° Southeast 270 501 3.000 882 Climbing Philadelphia TRACON
Sat 13:34:00 40.1163 -74.8344 66° East  Level FlightAware Approximate
Sat 13:35:51 40.1078 -74.6653 66° East 265 491 5.000  Level New York Center
Sat 13:36:51 40.0922 -74.5669 102° East 284 526 5.000 50 Level New York Center
Sat 13:37:51 40.0689 -74.4461 104° East 284 526 5.100 500 Climbing New York Center
Sat 13:38:51 40.0569 -74.3614 100° East 302 560 6.000 450 Climbing New York Center
Sat 13:39:51 40.0333 -74.2383 104° East 302 560 6.000  Level New York Center
Sat 13:40:51 40.0136 -74.1342 104° East 302 560 6.000 50 Level New York Center
Sat 13:41:51 39.9958 -74.0278 102° East 302 560 6.100 600 Climbing New York Center
Sat 13:42:51 39.9900 -73.9300 94° East 296 549 7.200 950 Climbing New York Center
Sat 13:43:51 39.9806 -73.8131 96° East 316 586 8.000 400 Climbing New York Center
Sat 13:44:51 39.9733 -73.6936 94° East 321 594 8.000 500 Level New York Center
Sat 13:45:51 39.9947 -73.5886 75° East 302 560 9.000 500 Climbing New York Center
Sat 13:46:51 40.0592 -73.4992 47° Northeast 302 560 9.000  Level New York Center
Sat 13:49:00 40.1933 -73.2950 49° Northeast 340 629 9.000  Level Boston Center
Sat 13:50:00 40.2569 -73.2003 49° Northeast 343 636 9.000  Level Boston Center
Sat 13:51:02 40.3183 -73.1081 49° Northeast 342 634 9.000 -146 Level Boston Center
Sat 13:52:03 40.3803 -73.0150 49° Northeast 341 631 8.700 -639 Descending Boston Center
Sat 13:53:04 40.4389 -72.9253 49° Northeast 334 618 7.700 -1.240 Descending Boston Center
Sat 13:54:04 40.4947 -72.8456 47° Northeast 317 587 6.200 -1.587 Descending Boston Center
Sat 13:55:05 40.5578 -72.8631 348° North 263 488 4.500 -1.392 Descending Boston Center
Sat 13:57:05 40.6667 -72.9667 324° Northwest 223 414 2.000 -903 Descending New York TRACON
Sat 13:58:11 40.7167 -73.0167 323° Northwest 194 359 1.700 -350 Descending New York TRACON
Sat 13:59:05 40.7500 -73.0500 323° Northwest 165 306 1.300 -684 Descending New York TRACON
Sat 14:00:05 40.7833 -73.0833 323° Northwest 140 259 400 -900 Descending New York TRACON

Login

Don't have an account? Register now (free) for customized features, flight alerts, and more!